Time;durP1;ratioP1;P1;durP2;ratioP2;P2;SDS_P1;SDS_P2;PMS_P1;PMS_P2;Temp;Humidity;BMP_temperature;BMP_pressure;BME280_temperature;BME280_humidity;BME280_pressure;Samples;Min_cycle;Max_cycle;Signal;HPM_P1;HPM_P2
2023/08/20 00:01:06;;;;;;;23.73;21.87;;;25.80;99.90;;;;;;5106838;28;20499;-82
2023/08/20 00:03:50;;;;;;;;;;;;;;;;;;;;;
2023/08/20 00:06:21;;;;;;;20.50;18.90;;;25.80;99.90;;;;;;5100110;28;20557;-83
2023/08/20 00:09:08;;;;;;;21.80;19.90;;;25.80;99.90;;;;;;5089050;28;20516;-82
2023/08/20 00:15:08;;;;;;;19.10;17.70;;;25.80;99.90;;;;;;5097117;28;20497;-82
2023/08/20 00:17:59;;;;;;;18.27;16.97;;;25.80;99.90;;;;;;5100020;28;20566;-82
2023/08/20 00:20:36;;;;;;;17.57;16.17;;;25.80;99.90;;;;;;5105276;28;20458;-79
2023/08/20 00:26:10;;;;;;;17.03;15.63;;;25.80;99.90;;;;;;5087150;28;20484;-81
2023/08/20 00:28:41;;;;;;;17.47;16.17;;;25.80;99.90;;;;;;5102547;28;20477;-82
2023/08/20 00:31:17;;;;;;;16.40;15.10;;;25.80;99.90;;;;;;5105440;28;20504;-81
2023/08/20 00:37:12;;;;;;;17.17;15.77;;;25.80;99.90;;;;;;5121582;28;20462;-83
2023/08/20 00:39:57;;;;;;;19.80;18.23;;;25.80;99.90;;;;;;5143757;27;20463;-83
2023/08/20 00:42:28;;;;;;;18.40;16.97;;;25.80;99.90;;;;;;5122849;28;20456;-82
2023/08/20 00:45:31;;;;;;;16.60;15.50;;;25.80;99.90;;;;;;5109244;28;20566;-81
2023/08/20 00:47:59;;;;;;;18.43;16.90;;;25.90;99.90;;;;;;5116445;28;20468;-83
2023/08/20 00:50:26;;;;;;;18.40;17.00;;;25.80;99.90;;;;;;5114254;28;20985;-82
2023/08/20 00:52:58;;;;;;;18.03;16.73;;;25.80;99.90;;;;;;5113260;28;20946;-80
2023/08/20 00:55:27;;;;;;;18.90;17.47;;;25.80;99.90;;;;;;5113902;28;20815;-82
2023/08/20 00:57:54;;;;;;;18.33;17.03;;;25.80;99.90;;;;;;5121663;28;20542;-81
2023/08/20 01:00:24;;;;;;;17.80;16.40;;;25.80;99.90;;;;;;5128839;28;20464;-80
2023/08/20 01:02:51;;;;;;;16.40;15.10;;;25.80;99.90;;;;;;5127773;28;20457;-81
2023/08/20 01:05:18;;;;;;;15.50;14.30;;;25.80;99.90;;;;;;5129018;28;20526;-82
2023/08/20 01:07:59;;;;;;;16.83;15.63;;;25.80;99.90;;;;;;5129624;28;20457;-82
2023/08/20 01:10:36;;;;;;;14.47;13.27;;;25.80;99.90;;;;;;5124449;28;20452;-79
2023/08/20 01:13:04;;;;;;;16.33;15.13;;;25.80;99.90;;;;;;5118438;28;20969;-82
2023/08/20 01:15:31;;;;;;;14.10;13.10;;;25.80;99.90;;;;;;5118434;28;20464;-80
2023/08/20 01:17:58;;;;;;;15.30;14.10;;;25.70;99.90;;;;;;5117775;28;20472;-80
2023/08/20 01:20:31;;;;;;;15.27;14.13;;;25.70;99.90;;;;;;5116281;28;20460;-81
2023/08/20 01:23:33;;;;;;;13.77;12.77;;;25.80;99.90;;;;;;5115162;28;20468;-82
2023/08/20 01:26:16;;;;;;;13.77;12.77;;;25.70;99.90;;;;;;5114113;28;20467;-83
2023/08/20 01:29:09;;;;;;;14.57;13.33;;;25.70;99.90;;;;;;5116975;28;20528;-83
2023/08/20 01:31:36;;;;;;;12.63;11.70;;;25.70;99.90;;;;;;5120770;28;20460;-82
2023/08/20 01:34:03;;;;;;;14.87;13.73;;;25.70;99.90;;;;;;5119009;28;20465;-82
2023/08/20 01:36:30;;;;;;;15.00;13.90;;;25.70;99.90;;;;;;5117679;28;20529;-82
2023/08/20 01:38:57;;;;;;;15.80;14.60;;;25.70;99.90;;;;;;5115060;28;20460;-82
2023/08/20 01:41:24;;;;;;;14.67;13.47;;;25.70;99.90;;;;;;5113970;28;20808;-81
2023/08/20 01:43:52;;;;;;;13.57;12.60;;;25.70;99.90;;;;;;5114043;28;20453;-82
2023/08/20 01:46:20;;;;;;;14.23;13.13;;;25.70;99.90;;;;;;5115678;28;20793;-81
2023/08/20 01:48:49;;;;;;;13.53;12.43;;;25.70;99.90;;;;;;5114427;28;20491;-81
2023/08/20 01:51:16;;;;;;;12.87;11.87;;;25.70;99.90;;;;;;5117350;28;20492;-81
2023/08/20 01:53:43;;;;;;;14.20;13.10;;;25.70;99.90;;;;;;5117018;28;20472;-81
2023/08/20 01:56:13;;;;;;;14.47;13.47;;;25.70;99.90;;;;;;5117399;28;21022;-81
2023/08/20 01:58:40;;;;;;;14.50;13.50;;;25.70;99.90;;;;;;5116465;28;20456;-81
2023/08/20 02:01:07;;;;;;;14.67;13.57;;;25.70;99.90;;;;;;5117372;28;20525;-83
2023/08/20 02:03:37;;;;;;;14.20;13.10;;;25.70;99.90;;;;;;5116440;28;20472;-83
2023/08/20 02:06:04;;;;;;;12.90;11.90;;;25.60;99.90;;;;;;5117168;28;20521;-81
2023/08/20 02:08:31;;;;;;;13.40;12.50;;;25.60;99.90;;;;;;5116642;28;20464;-83
2023/08/20 02:11:02;;;;;;;13.00;12.10;;;25.70;99.90;;;;;;5117542;28;20472;-83
2023/08/20 02:13:29;;;;;;;12.50;11.57;;;25.60;99.90;;;;;;5116746;28;20461;-82
2023/08/20 02:16:01;;;;;;;12.70;11.50;;;25.60;99.90;;;;;;5117163;28;20544;-82
2023/08/20 02:18:30;;;;;;;12.67;11.77;;;25.60;99.90;;;;;;5117445;28;20479;-80
2023/08/20 02:20:58;;;;;;;13.50;12.43;;;25.60;99.90;;;;;;5117052;28;20452;-81
2023/08/20 02:23:34;;;;;;;12.83;11.83;;;25.60;99.90;;;;;;5117146;28;20533;-83
2023/08/20 02:26:02;;;;;;;12.77;11.80;;;25.60;99.90;;;;;;5089299;28;20460;-81
2023/08/20 02:28:32;;;;;;;13.80;12.80;;;25.60;99.90;;;;;;5116561;28;20472;-80
2023/08/20 02:30:59;;;;;;;12.27;11.37;;;25.60;99.90;;;;;;5116294;28;20496;-80
2023/08/20 02:33:27;;;;;;;14.43;13.40;;;25.60;99.90;;;;;;5116605;28;20474;-81
2023/08/20 02:35:54;;;;;;;14.03;12.93;;;25.60;99.90;;;;;;5115568;28;20469;-81
2023/08/20 02:38:23;;;;;;;13.97;12.90;;;25.60;99.90;;;;;;5116293;28;20499;-81
2023/08/20 02:40:50;;;;;;;13.70;12.70;;;25.60;99.90;;;;;;5115191;28;20469;-83
2023/08/20 02:43:17;;;;;;;13.60;12.70;;;25.60;99.90;;;;;;5117003;28;20460;-82
2023/08/20 02:45:45;;;;;;;15.17;14.07;;;25.60;99.90;;;;;;5115154;28;20468;-82
2023/08/20 02:48:12;;;;;;;14.87;13.67;;;25.60;99.90;;;;;;5115492;28;20492;-83
2023/08/20 02:50:39;;;;;;;15.80;14.60;;;25.60;99.90;;;;;;5115937;28;20472;-79
2023/08/20 02:53:41;;;;;;;14.90;13.77;;;25.60;99.90;;;;;;5114863;28;20851;-82
2023/08/20 02:56:11;;;;;;;13.33;12.33;;;25.50;99.90;;;;;;5100527;28;20531;-81
2023/08/20 02:58:38;;;;;;;14.90;13.73;;;25.50;99.90;;;;;;5115508;28;20465;-80
2023/08/20 03:01:06;;;;;;;13.90;12.50;;;25.50;99.90;;;;;;5115160;28;20475;-80
2023/08/20 03:03:33;;;;;;;14.67;13.57;;;25.40;99.90;;;;;;5116011;28;20461;-82
2023/08/20 03:06:00;;;;;;;13.60;12.60;;;25.40;99.90;;;;;;5114969;28;20461;-82
2023/08/20 03:08:29;;;;;;;14.57;13.50;;;25.40;99.90;;;;;;5115763;28;20464;-81
2023/08/20 03:10:55;;;;;;;14.17;13.17;;;25.40;99.90;;;;;;5115280;28;20468;-81
2023/08/20 03:13:22;;;;;;;15.47;14.30;;;25.40;99.90;;;;;;5115945;28;20464;-82
2023/08/20 03:15:49;;;;;;;15.40;14.10;;;25.40;99.90;;;;;;5115072;28;20476;-82
2023/08/20 03:18:16;;;;;;;14.73;13.57;;;25.30;99.90;;;;;;5115631;28;20456;-81
2023/08/20 03:20:43;;;;;;;15.20;14.10;;;25.30;99.90;;;;;;5116038;28;20468;-82
2023/08/20 03:23:10;;;;;;;15.07;13.97;;;25.30;99.90;;;;;;5115218;28;20469;-81
2023/08/20 03:25:39;;;;;;;14.40;13.30;;;25.30;99.90;;;;;;5115793;28;20552;-80
2023/08/20 03:28:07;;;;;;;14.40;13.40;;;25.20;99.90;;;;;;5115436;28;20472;-81
2023/08/20 03:30:33;;;;;;;14.13;12.93;;;25.20;99.90;;;;;;5115496;28;20464;-81
2023/08/20 03:33:00;;;;;;;15.50;14.30;;;25.20;99.90;;;;;;5115006;28;20464;-80
2023/08/20 03:35:30;;;;;;;14.90;13.70;;;25.20;99.90;;;;;;5114736;28;20480;-82
2023/08/20 03:37:59;;;;;;;14.13;13.10;;;25.20;99.90;;;;;;5114086;28;20964;-80
2023/08/20 03:40:26;;;;;;;13.37;12.17;;;25.10;99.90;;;;;;5114894;28;20949;-81
2023/08/20 03:42:54;;;;;;;14.23;13.03;;;25.10;99.90;;;;;;5113952;28;20529;-82
2023/08/20 03:45:21;;;;;;;15.10;13.90;;;25.10;99.90;;;;;;5115157;28;20472;-82
2023/08/20 03:47:48;;;;;;;13.93;12.83;;;25.10;99.90;;;;;;5115165;28;20464;-81
2023/08/20 03:50:17;;;;;;;13.60;12.60;;;25.00;99.90;;;;;;5114257;28;20456;-82
2023/08/20 03:52:44;;;;;;;14.93;13.83;;;25.00;99.90;;;;;;5114889;28;20492;-82
2023/08/20 03:55:11;;;;;;;15.17;13.97;;;25.00;99.90;;;;;;5114320;28;20468;-82
2023/08/20 03:57:38;;;;;;;15.43;14.13;;;25.00;99.90;;;;;;5114369;28;20533;-82
2023/08/20 04:00:09;;;;;;;14.27;13.17;;;24.90;99.90;;;;;;5114879;28;20468;-80
2023/08/20 04:02:36;;;;;;;14.73;13.63;;;24.90;99.90;;;;;;5116382;28;20545;-81
2023/08/20 04:05:04;;;;;;;13.70;12.70;;;24.80;99.90;;;;;;5117275;28;20469;-82
2023/08/20 04:07:31;;;;;;;14.33;13.07;;;24.80;99.90;;;;;;5117440;28;20538;-81
2023/08/20 04:09:58;;;;;;;15.60;14.40;;;24.80;99.90;;;;;;5114316;28;20962;-82
2023/08/20 04:12:25;;;;;;;13.57;12.30;;;24.80;99.90;;;;;;5115050;28;20525;-82
2023/08/20 04:14:52;;;;;;;15.07;13.97;;;24.80;99.90;;;;;;5117407;28;20530;-81
2023/08/20 04:17:20;;;;;;;15.17;14.00;;;24.80;99.90;;;;;;5124656;28;20464;-80
2023/08/20 04:19:47;;;;;;;14.50;13.10;;;24.80;99.90;;;;;;5120181;28;20502;-80
2023/08/20 04:22:15;;;;;;;14.93;13.73;;;24.80;99.90;;;;;;5114120;28;20480;-82
2023/08/20 04:24:42;;;;;;;15.87;14.47;;;24.80;99.90;;;;;;5114783;28;20472;-81
2023/08/20 04:27:09;;;;;;;14.13;12.90;;;24.80;99.90;;;;;;5121829;28;20468;-81
2023/08/20 04:29:36;;;;;;;15.63;14.33;;;24.70;99.90;;;;;;5114763;28;20941;-81
2023/08/20 04:32:03;;;;;;;14.80;13.60;;;24.70;99.90;;;;;;5114215;28;20465;-82
2023/08/20 04:34:31;;;;;;;14.47;13.30;;;24.70;99.90;;;;;;5114676;28;20484;-80
2023/08/20 04:36:58;;;;;;;15.37;14.00;;;24.70;99.90;;;;;;5114038;28;20464;-82
2023/08/20 04:39:25;;;;;;;15.53;14.17;;;24.70;99.90;;;;;;5114455;28;20783;-82
2023/08/20 04:41:52;;;;;;;14.30;13.20;;;24.70;99.90;;;;;;5113967;28;20936;-83
2023/08/20 04:44:19;;;;;;;15.47;14.17;;;24.70;99.90;;;;;;5113989;28;20460;-82
2023/08/20 04:46:46;;;;;;;14.80;13.70;;;24.70;99.90;;;;;;5114013;28;20479;-82
2023/08/20 04:49:13;;;;;;;14.90;13.70;;;24.70;99.90;;;;;;5113654;28;20475;-81
2023/08/20 04:51:41;;;;;;;13.97;12.80;;;24.70;99.90;;;;;;5113664;28;20525;-79
2023/08/20 04:54:08;;;;;;;14.53;13.33;;;24.70;99.90;;;;;;5113462;28;20932;-82
2023/08/20 04:56:35;;;;;;;13.63;12.70;;;24.70;99.90;;;;;;5113849;28;20460;-81
2023/08/20 04:59:02;;;;;;;15.77;14.37;;;24.70;99.90;;;;;;5113111;28;20488;-83
2023/08/20 05:01:29;;;;;;;14.70;13.53;;;24.70;99.90;;;;;;5113853;28;20960;-81
2023/08/20 05:03:56;;;;;;;14.80;13.70;;;24.70;99.90;;;;;;5112832;28;20464;-79
2023/08/20 05:06:26;;;;;;;14.67;13.50;;;24.70;99.90;;;;;;5113104;28;20464;-82
2023/08/20 05:08:54;;;;;;;16.53;15.13;;;24.70;99.90;;;;;;5113364;28;20461;-80
2023/08/20 05:11:21;;;;;;;15.80;14.50;;;24.80;99.90;;;;;;5112871;28;20452;-80
2023/08/20 05:13:51;;;;;;;16.90;15.47;;;24.80;99.90;;;;;;5113390;28;20483;-82
2023/08/20 05:16:18;;;;;;;17.77;16.13;;;24.80;99.90;;;;;;5113307;28;21045;-80
2023/08/20 05:18:45;;;;;;;17.60;16.07;;;24.80;99.90;;;;;;5113486;28;20471;-80
2023/08/20 05:21:13;;;;;;;17.10;15.70;;;24.80;99.90;;;;;;5113154;28;20465;-83
2023/08/20 05:23:43;;;;;;;18.80;17.10;;;24.80;99.90;;;;;;5114775;28;20863;-82
2023/08/20 05:26:11;;;;;;;16.57;15.37;;;24.80;99.90;;;;;;5117082;28;20477;-83
2023/08/20 05:28:38;;;;;;;17.30;15.80;;;24.90;99.90;;;;;;5117729;28;20460;-83
2023/08/20 05:31:05;;;;;;;18.10;16.47;;;24.90;99.90;;;;;;5116888;28;20520;-82
2023/08/20 05:33:32;;;;;;;17.20;15.77;;;24.90;99.90;;;;;;5117705;28;20472;-82
2023/08/20 05:36:00;;;;;;;18.33;16.53;;;25.00;99.90;;;;;;5117597;28;20494;-82
2023/08/20 05:38:27;;;;;;;17.27;15.77;;;25.00;99.90;;;;;;5116518;28;20483;-80
2023/08/20 05:40:54;;;;;;;17.50;15.90;;;25.00;99.90;;;;;;5117166;28;20525;-80
2023/08/20 05:43:22;;;;;;;16.47;15.13;;;25.00;99.90;;;;;;5116543;28;20468;-82
2023/08/20 05:45:50;;;;;;;18.87;17.23;;;25.00;99.90;;;;;;5117477;28;20480;-82
2023/08/20 05:48:16;;;;;;;14.30;13.10;;;25.00;99.90;;;;;;5116778;28;20494;-80
2023/08/20 05:50:43;;;;;;;17.57;16.10;;;25.00;99.90;;;;;;5116850;28;20472;-81
2023/08/20 05:53:10;;;;;;;16.90;15.50;;;25.00;99.90;;;;;;5116565;28;20533;-82
2023/08/20 05:55:39;;;;;;;17.47;15.97;;;25.10;99.90;;;;;;5118673;27;20466;-81
2023/08/20 05:58:06;;;;;;;18.50;16.90;;;25.10;99.90;;;;;;5121065;27;20460;-82
2023/08/20 06:00:34;;;;;;;20.10;18.50;;;25.20;99.90;;;;;;5116054;28;20472;-82
2023/08/20 06:03:01;;;;;;;16.93;15.60;;;25.20;99.90;;;;;;5117083;28;20460;-82
2023/08/20 06:05:28;;;;;;;17.50;16.00;;;25.20;99.90;;;;;;5116150;28;20479;-81
2023/08/20 06:07:55;;;;;;;18.00;16.23;;;25.30;99.90;;;;;;5116808;28;20484;-80
2023/08/20 06:10:22;;;;;;;17.10;15.50;;;25.30;99.90;;;;;;5115259;28;20532;-82
2023/08/20 06:12:49;;;;;;;18.67;16.87;;;25.30;99.90;;;;;;5116804;28;20491;-81
2023/08/20 06:15:16;;;;;;;18.73;17.03;;;25.40;99.90;;;;;;5116181;28;20525;-80
2023/08/20 06:17:44;;;;;;;17.70;16.10;;;25.30;99.90;;;;;;5116939;28;20464;-80
2023/08/20 06:20:12;;;;;;;18.30;16.70;;;25.40;99.90;;;;;;5116057;28;20472;-81
2023/08/20 06:22:39;;;;;;;17.73;16.10;;;25.40;99.90;;;;;;5116300;28;20560;-82
2023/08/20 06:25:07;;;;;;;18.70;17.20;;;25.40;99.90;;;;;;5116401;28;20778;-82
2023/08/20 06:27:34;;;;;;;17.50;15.70;;;25.40;99.90;;;;;;5115618;28;20449;-82
2023/08/20 06:33:09;;;;;;;19.10;17.50;;;25.40;99.90;;;;;;5084949;28;20950;-80
2023/08/20 06:35:36;;;;;;;17.50;16.03;;;25.40;99.90;;;;;;5115622;28;20464;-82
2023/08/20 06:38:03;;;;;;;18.80;17.10;;;25.40;99.90;;;;;;5115977;28;20489;-80
2023/08/20 06:40:30;;;;;;;15.37;14.07;;;25.40;99.90;;;;;;5119635;27;20509;-81
2023/08/20 06:43:00;;;;;;;16.03;14.63;;;25.50;99.90;;;;;;5119066;27;20465;-82
2023/08/20 06:45:28;;;;;;;15.80;14.50;;;25.50;99.90;;;;;;5115890;28;20449;-82
2023/08/20 06:47:58;;;;;;;17.83;16.30;;;25.50;99.90;;;;;;5116381;28;20957;-81
2023/08/20 06:50:27;;;;;;;18.00;16.50;;;25.50;99.90;;;;;;5116232;28;20452;-81
2023/08/20 06:52:54;;;;;;;15.57;14.30;;;25.50;99.90;;;;;;5117564;28;20464;-82
2023/08/20 06:55:21;;;;;;;16.90;15.60;;;25.60;99.90;;;;;;5115883;28;20475;-80
2023/08/20 06:57:48;;;;;;;17.70;16.07;;;25.60;99.90;;;;;;5116207;28;20457;-82
2023/08/20 07:00:16;;;;;;;17.03;15.63;;;25.60;99.90;;;;;;5115545;28;20552;-83
2023/08/20 07:02:43;;;;;;;16.20;14.97;;;25.60;99.90;;;;;;5115392;28;20476;-82
2023/08/20 07:05:10;;;;;;;18.50;16.90;;;25.60;99.90;;;;;;5115459;28;20483;-81
2023/08/20 07:07:39;;;;;;;15.90;14.60;;;25.60;99.90;;;;;;5115793;28;20976;-79
2023/08/20 07:10:07;;;;;;;17.90;16.30;;;25.60;99.90;;;;;;5114775;28;20469;-82
2023/08/20 07:12:34;;;;;;;16.90;15.50;;;25.50;99.90;;;;;;5115568;28;20968;-82
2023/08/20 07:15:02;;;;;;;16.70;15.17;;;25.50;99.90;;;;;;5115374;28;20472;-83
2023/08/20 07:17:30;;;;;;;16.33;15.03;;;25.50;99.90;;;;;;5114541;28;20449;-81
2023/08/20 07:19:57;;;;;;;18.73;17.03;;;25.50;99.90;;;;;;5115720;28;20604;-82
2023/08/20 07:22:24;;;;;;;16.40;15.00;;;25.40;99.90;;;;;;5114900;28;20465;-81
2023/08/20 07:24:52;;;;;;;16.10;14.70;;;25.50;99.90;;;;;;5114680;28;20476;-81
2023/08/20 07:27:19;;;;;;;15.83;14.53;;;25.50;99.90;;;;;;5113958;28;21062;-80
2023/08/20 07:29:47;;;;;;;14.80;13.60;;;25.50;99.90;;;;;;5115029;28;20456;-82
2023/08/20 07:32:14;;;;;;;13.87;12.77;;;25.60;99.90;;;;;;5114343;28;20991;-82
2023/08/20 07:34:41;;;;;;;14.80;13.50;;;25.60;99.90;;;;;;5115077;28;20782;-81
2023/08/20 07:37:12;;;;;;;19.20;17.47;;;25.60;99.90;;;;;;5115132;28;20472;-81
2023/08/20 07:39:46;;;;;;;16.90;15.43;;;25.60;99.90;;;;;;5114669;28;20468;-80
2023/08/20 07:42:15;;;;;;;18.90;17.20;;;25.70;99.90;;;;;;5115107;28;20541;-80
2023/08/20 07:44:42;;;;;;;14.13;13.03;;;25.60;99.90;;;;;;5115232;28;20464;-81
2023/08/20 07:47:09;;;;;;;14.93;13.70;;;25.60;99.90;;;;;;5117910;28;20526;-82
2023/08/20 07:49:36;;;;;;;16.33;14.80;;;25.60;99.90;;;;;;5119764;27;20501;-82
2023/08/20 07:52:03;;;;;;;17.70;16.20;;;25.70;99.90;;;;;;5114751;28;20457;-80
2023/08/20 07:54:30;;;;;;;17.97;16.50;;;25.70;99.90;;;;;;5114276;28;20480;-82
2023/08/20 07:56:57;;;;;;;13.30;12.30;;;25.60;99.90;;;;;;5114740;28;20530;-80
2023/08/20 07:59:25;;;;;;;15.27;13.87;;;25.60;99.90;;;;;;5114030;28;20468;-80
2023/08/20 08:01:52;;;;;;;16.50;15.20;;;25.70;99.90;;;;;;5114991;28;20472;-81
2023/08/20 08:04:19;;;;;;;15.77;14.47;;;25.80;99.90;;;;;;5114303;28;20480;-83
2023/08/20 08:06:46;;;;;;;14.60;13.43;;;25.80;99.90;;;;;;5113581;28;20958;-83
2023/08/20 08:09:21;;;;;;;15.17;13.97;;;25.80;99.90;;;;;;5114527;28;20498;-80
2023/08/20 08:11:49;;;;;;;15.47;14.07;;;25.80;99.90;;;;;;5115194;28;20453;-81
2023/08/20 08:14:16;;;;;;;16.03;14.53;;;25.90;99.90;;;;;;5115720;28;20474;-79
2023/08/20 08:16:45;;;;;;;14.13;13.03;;;25.90;99.90;;;;;;5114340;28;20498;-82
2023/08/20 08:19:16;;;;;;;12.47;11.57;;;26.00;99.90;;;;;;5110675;27;20472;-82
2023/08/20 08:21:45;;;;;;;12.23;11.33;;;26.00;99.90;;;;;;5122335;27;20551;-82
2023/08/20 08:24:12;;;;;;;13.43;12.40;;;26.10;99.90;;;;;;5114146;28;20480;-82
2023/08/20 08:26:43;;;;;;;12.63;11.63;;;26.10;99.90;;;;;;5113830;28;20467;-83
2023/08/20 08:29:10;;;;;;;11.33;10.47;;;26.20;99.90;;;;;;5115098;28;21007;-82
2023/08/20 08:31:41;;;;;;;13.27;12.23;;;26.20;99.90;;;;;;5114558;28;20470;-82
2023/08/20 08:34:09;;;;;;;11.57;10.70;;;26.20;99.90;;;;;;5114543;28;20864;-82
2023/08/20 08:36:36;;;;;;;12.77;11.77;;;26.30;99.90;;;;;;5113707;28;20473;-81
2023/08/20 08:39:05;;;;;;;12.90;11.77;;;26.30;99.90;;;;;;5105160;28;20470;-82
2023/08/20 08:41:34;;;;;;;11.40;10.50;;;26.30;99.90;;;;;;5113512;28;20479;-80
2023/08/20 08:44:02;;;;;;;10.30;9.50;;;26.40;99.90;;;;;;5113750;28;20564;-82
2023/08/20 08:46:34;;;;;;;10.30;9.60;;;26.50;99.90;;;;;;5114082;28;20847;-81
2023/08/20 08:49:05;;;;;;;10.17;9.27;;;26.60;99.90;;;;;;5113061;28;20985;-80
2023/08/20 08:51:34;;;;;;;10.77;9.87;;;26.60;99.90;;;;;;5114246;28;21009;-80
2023/08/20 08:54:03;;;;;;;10.10;9.40;;;26.70;99.90;;;;;;5112868;28;21027;-81
2023/08/20 08:56:32;;;;;;;10.57;9.77;;;26.70;99.90;;;;;;5113775;28;20471;-82
2023/08/20 08:58:59;;;;;;;10.23;9.33;;;26.80;99.90;;;;;;5116431;28;20464;-80
2023/08/20 09:01:27;;;;;;;10.43;9.53;;;26.90;99.90;;;;;;5118364;28;20479;-82
2023/08/20 09:03:54;;;;;;;10.57;9.73;;;26.90;99.90;;;;;;5108691;27;20470;-82
2023/08/20 09:06:21;;;;;;;9.67;8.97;;;26.90;99.90;;;;;;5132193;27;20461;-80
2023/08/20 09:08:49;;;;;;;10.10;9.30;;;27.00;99.90;;;;;;5117684;28;20458;-80
2023/08/20 09:11:16;;;;;;;9.13;8.43;;;27.00;99.90;;;;;;5117247;28;20465;-81
2023/08/20 09:13:48;;;;;;;8.20;7.50;;;27.10;99.90;;;;;;5117631;28;20470;-81
2023/08/20 09:16:18;;;;;;;10.07;9.27;;;27.10;99.90;;;;;;5117580;28;20931;-81
2023/08/20 09:18:46;;;;;;;10.70;9.90;;;27.20;99.90;;;;;;5117496;28;20478;-79
2023/08/20 09:21:14;;;;;;;10.23;9.53;;;27.30;99.90;;;;;;5116962;28;20452;-81
2023/08/20 09:23:46;;;;;;;9.47;8.77;;;27.30;99.90;;;;;;5117471;28;20501;-83
2023/08/20 09:26:15;;;;;;;9.70;8.90;;;27.30;99.90;;;;;;5117105;28;20503;-82
2023/08/20 09:28:45;;;;;;;9.40;8.70;;;27.30;99.90;;;;;;5117468;28;20473;-83
2023/08/20 09:31:13;;;;;;;9.57;8.70;;;27.30;99.90;;;;;;5115980;28;20479;-81
2023/08/20 09:33:50;;;;;;;7.77;7.17;;;27.30;99.90;;;;;;5117320;28;20822;-81
2023/08/20 09:36:18;;;;;;;9.30;8.60;;;27.40;99.90;;;;;;5116559;28;20488;-83
2023/08/20 09:38:45;;;;;;;8.57;7.97;;;27.40;99.90;;;;;;5117165;28;20459;-83
2023/08/20 09:41:17;;;;;;;9.50;8.77;;;27.40;99.90;;;;;;5116607;27;20544;-81
2023/08/20 09:43:46;;;;;;;8.60;7.90;;;27.40;99.90;;;;;;5122096;27;20493;-83
2023/08/20 09:46:17;;;;;;;9.50;8.73;;;27.40;99.90;;;;;;5116052;28;20478;-82
2023/08/20 09:48:51;;;;;;;9.00;8.30;;;27.40;99.90;;;;;;5117155;28;20529;-81
2023/08/20 09:51:25;;;;;;;8.90;8.30;;;27.40;99.90;;;;;;5116585;28;20999;-83
2023/08/20 09:54:06;;;;;;;8.97;8.27;;;27.40;99.90;;;;;;5117428;28;20470;-81
2023/08/20 09:56:39;;;;;;;8.70;8.00;;;27.40;99.90;;;;;;5116949;28;20955;-83
2023/08/20 09:59:07;;;;;;;8.53;7.83;;;27.40;99.90;;;;;;5116904;28;21037;-82
2023/08/20 10:01:38;;;;;;;9.03;8.43;;;27.40;99.90;;;;;;5115997;28;20453;-81
2023/08/20 10:04:07;;;;;;;8.27;6.93;;;27.40;99.90;;;;;;5116461;28;20915;-83
2023/08/20 10:06:38;;;;;;;8.83;8.13;;;27.40;99.90;;;;;;5107696;28;20777;-82
2023/08/20 10:09:06;;;;;;;8.40;7.80;;;27.40;99.90;;;;;;5115580;28;20526;-81
2023/08/20 10:11:37;;;;;;;8.20;7.60;;;27.40;99.90;;;;;;5115130;28;20482;-82
2023/08/20 10:14:04;;;;;;;7.20;6.70;;;27.30;99.90;;;;;;5116642;28;20476;-81
2023/08/20 10:16:34;;;;;;;7.90;7.40;;;27.30;99.90;;;;;;5119329;28;21012;-80
2023/08/20 10:19:03;;;;;;;8.43;7.83;;;27.30;99.90;;;;;;5115968;28;20485;-81
2023/08/20 10:21:30;;;;;;;8.17;7.57;;;27.20;99.90;;;;;;5116242;28;20493;-80
2023/08/20 10:23:58;;;;;;;7.50;7.00;;;27.20;99.90;;;;;;5114926;28;20528;-80
2023/08/20 10:26:26;;;;;;;6.93;6.43;;;27.20;99.90;;;;;;5116474;28;20470;-80
2023/08/20 10:29:33;;;;;;;8.53;7.90;;;27.20;99.90;;;;;;5116213;28;20475;-80
2023/08/20 10:32:00;;;;;;;6.77;6.27;;;27.10;99.90;;;;;;5115671;28;21330;-81
2023/08/20 10:34:35;;;;;;;8.00;7.50;;;27.10;99.90;;;;;;5115881;28;20973;-80
2023/08/20 10:37:04;;;;;;;7.57;7.07;;;27.10;99.90;;;;;;5115696;28;20474;-82
2023/08/20 10:39:31;;;;;;;6.10;5.70;;;27.10;99.90;;;;;;5116248;28;20472;-81
2023/08/20 10:42:23;;;;;;;8.10;7.50;;;27.10;99.90;;;;;;5115234;28;20854;-80
2023/08/20 10:45:00;;;;;;;7.03;6.53;;;27.10;99.90;;;;;;5115357;28;20475;-79
2023/08/20 10:47:36;;;;;;;7.50;6.90;;;27.10;99.90;;;;;;5116409;27;20469;-81
2023/08/20 10:50:04;;;;;;;5.20;4.80;;;27.10;99.90;;;;;;5131350;27;20502;-81
2023/08/20 10:52:31;;;;;;;6.33;5.93;;;27.20;99.90;;;;;;5118931;28;20520;-81
2023/08/20 10:54:58;;;;;;;5.97;5.57;;;27.20;99.90;;;;;;5119772;28;20866;-80
2023/08/20 10:57:34;;;;;;;7.03;6.43;;;27.30;99.90;;;;;;5119225;28;20462;-82
2023/08/20 11:00:10;;;;;;;6.20;5.80;;;27.30;99.90;;;;;;5120838;28;20551;-82
2023/08/20 11:02:38;;;;;;;5.90;5.50;;;27.30;99.90;;;;;;5116558;28;20471;-81
2023/08/20 11:05:18;;;;;;;7.00;6.50;;;27.30;99.90;;;;;;5115253;28;20492;-80
2023/08/20 11:07:49;;;;;;;5.60;5.30;;;27.30;99.90;;;;;;5115669;28;20617;-81
2023/08/20 11:10:17;;;;;;;6.57;6.07;;;27.30;99.90;;;;;;5116803;28;20464;-82
2023/08/20 11:12:49;;;;;;;6.30;5.90;;;27.30;99.90;;;;;;5116352;28;20976;-80
2023/08/20 11:15:18;;;;;;;6.03;5.63;;;27.20;99.90;;;;;;5117706;28;20499;-81
2023/08/20 11:17:59;;;;;;;6.33;5.87;;;27.20;99.90;;;;;;5117027;28;20471;-81
2023/08/20 11:20:26;;;;;;;6.10;5.70;;;27.20;99.90;;;;;;5116448;28;20471;-82
2023/08/20 11:22:53;;;;;;;6.17;5.77;;;27.20;99.90;;;;;;5114182;28;20533;-81
2023/08/20 11:25:20;;;;;;;6.00;5.50;;;27.20;99.90;;;;;;5115726;28;20531;-81
2023/08/20 11:27:47;;;;;;;6.30;5.90;;;27.10;99.90;;;;;;5115030;28;20467;-82
2023/08/20 11:30:16;;;;;;;5.87;5.43;;;27.10;99.90;;;;;;5115517;28;20827;-80
2023/08/20 11:32:46;;;;;;;5.73;5.23;;;27.10;99.90;;;;;;5115323;28;20551;-80
2023/08/20 11:35:14;;;;;;;5.10;4.80;;;27.20;99.90;;;;;;5115322;28;20464;-82
2023/08/20 11:37:41;;;;;;;6.10;5.70;;;27.20;99.90;;;;;;5115063;28;20468;-82
2023/08/20 11:40:11;;;;;;;6.10;5.60;;;27.20;99.90;;;;;;5115324;28;22268;-80
2023/08/20 11:42:38;;;;;;;5.60;5.20;;;27.10;99.90;;;;;;5114815;28;20489;-81
2023/08/20 11:45:07;;;;;;;5.30;5.00;;;27.20;99.90;;;;;;5113863;28;20476;-83
2023/08/20 11:47:42;;;;;;;6.00;5.60;;;27.20;99.90;;;;;;5114693;28;20473;-81
2023/08/20 11:50:10;;;;;;;5.37;5.07;;;27.20;99.90;;;;;;5113866;28;20948;-80
2023/08/20 11:52:43;;;;;;;5.10;4.70;;;27.20;99.90;;;;;;5114274;28;20475;-80
2023/08/20 11:55:13;;;;;;;5.60;5.20;;;27.20;99.90;;;;;;5112326;28;20815;-82
2023/08/20 11:57:42;;;;;;;5.73;5.33;;;27.20;99.90;;;;;;5115147;28;20460;-80
2023/08/20 12:00:12;;;;;;;5.77;5.37;;;27.20;99.90;;;;;;5106886;27;20472;-82
2023/08/20 12:02:41;;;;;;;5.77;5.37;;;27.20;99.90;;;;;;5128205;27;20475;-83
2023/08/20 12:05:14;;;;;;;5.50;5.10;;;27.20;99.90;;;;;;5114736;28;20502;-80
2023/08/20 12:07:41;;;;;;;5.93;5.53;;;27.20;99.90;;;;;;5114114;28;20481;-81
2023/08/20 12:10:25;;;;;;;4.97;4.43;;;27.20;99.90;;;;;;5114654;28;20478;-81
2023/08/20 12:12:53;;;;;;;5.40;5.00;;;27.20;99.90;;;;;;5114810;28;20962;-80
2023/08/20 12:15:21;;;;;;;4.63;4.33;;;27.30;99.90;;;;;;5106406;27;20480;-80
2023/08/20 12:18:04;;;;;;;5.47;5.07;;;27.30;99.90;;;;;;5124001;27;20816;-82
2023/08/20 12:20:35;;;;;;;4.53;4.23;;;27.20;99.90;;;;;;5094797;28;20762;-81
2023/08/20 12:23:04;;;;;;;5.20;4.77;;;27.20;99.90;;;;;;5114571;28;20553;-81
2023/08/20 12:25:35;;;;;;;4.73;4.43;;;27.20;99.90;;;;;;5113254;28;20466;-80
2023/08/20 12:28:03;;;;;;;4.80;4.40;;;27.20;99.90;;;;;;5113623;28;20575;-80
2023/08/20 12:30:30;;;;;;;4.73;4.43;;;27.20;99.90;;;;;;5114212;28;20543;-82
2023/08/20 12:32:59;;;;;;;5.60;5.10;;;27.20;99.90;;;;;;5115046;28;20468;-82
2023/08/20 12:35:26;;;;;;;5.10;4.80;;;27.20;99.90;;;;;;5114471;28;20743;-81
2023/08/20 12:37:54;;;;;;;4.53;4.13;;;27.20;99.90;;;;;;5114159;28;20483;-80
2023/08/20 12:40:21;;;;;;;4.30;4.00;;;27.20;99.90;;;;;;5113989;28;20559;-82
2023/08/20 12:42:50;;;;;;;5.13;4.73;;;27.20;99.90;;;;;;5114802;28;20464;-80
2023/08/20 12:45:18;;;;;;;4.40;4.10;;;27.20;99.90;;;;;;5113642;28;20476;-80
2023/08/20 12:47:50;;;;;;;5.20;4.80;;;27.20;99.90;;;;;;5114181;28;20536;-81
2023/08/20 12:50:17;;;;;;;4.20;3.90;;;27.20;99.90;;;;;;5113993;28;20475;-83
2023/08/20 12:52:44;;;;;;;4.20;3.90;;;27.10;99.90;;;;;;5114423;28;20528;-81
2023/08/20 12:55:15;;;;;;;4.73;4.33;;;27.10;99.90;;;;;;5113736;28;20533;-83
2023/08/20 12:57:55;;;;;;;4.90;4.53;;;27.10;99.90;;;;;;5114585;28;20453;-83